Time;durP1;ratioP1;P1;durP2;ratioP2;P2;SDS_P1;SDS_P2;PMS_P1;PMS_P2;Temp;Humidity;BMP_temperature;BMP_pressure;BME280_temperature;BME280_humidity;BME280_pressure;Samples;Min_cycle;Max_cycle;Signal;HPM_P1;HPM_P2
2021/04/17 00:01:05;;;;;;;7.50;4.63;;;;;;;17.63;45.35;100449.81;4987703;28;20046;-62
2021/04/17 00:03:31;;;;;;;10.57;5.10;;;;;;;17.48;45.52;100442.66;4986205;28;20050;-64
2021/04/17 00:05:58;;;;;;;14.63;5.17;;;;;;;17.55;45.57;100467.59;4981538;28;20047;-64
2021/04/17 00:08:24;;;;;;;10.87;6.17;;;;;;;17.41;45.83;100449.97;4988071;28;20054;-64
2021/04/17 00:10:51;;;;;;;10.37;4.90;;;;;;;17.37;46.00;100452.63;4983179;28;20080;-64
2021/04/17 00:13:17;;;;;;;11.70;5.73;;;;;;;17.24;46.48;100448.75;4986239;28;20385;-63
2021/04/17 00:15:46;;;;;;;11.43;5.13;;;;;;;17.18;46.71;100452.06;4987360;28;20499;-65
2021/04/17 00:18:13;;;;;;;16.67;5.97;;;;;;;17.06;47.06;100449.88;4989238;28;20492;-64
2021/04/17 00:20:39;;;;;;;14.47;5.00;;;;;;;16.92;47.48;100444.34;4986680;28;20422;-65
2021/04/17 00:23:06;;;;;;;9.73;5.00;;;;;;;16.84;48.09;100449.94;4987593;28;20141;-63
2021/04/17 00:25:32;;;;;;;10.33;4.73;;;;;;;16.71;48.82;100449.69;4966235;28;20491;-68
2021/04/17 00:27:59;;;;;;;14.17;6.13;;;;;;;16.52;49.54;100451.91;4985574;28;20053;-67
2021/04/17 00:30:25;;;;;;;7.87;4.47;;;;;;;16.45;49.91;100460.00;4988803;28;20427;-68
2021/04/17 00:32:51;;;;;;;22.40;5.57;;;;;;;16.01;50.30;100396.91;4990876;28;20513;-68
2021/04/17 00:35:18;;;;;;;12.27;6.53;;;;;;;16.30;50.51;100442.31;4988118;28;20514;-68
2021/04/17 00:37:44;;;;;;;12.80;5.67;;;;;;;16.23;51.07;100444.75;4983711;28;20043;-67
2021/04/17 00:40:11;;;;;;;9.47;5.73;;;;;;;16.08;51.50;100437.53;4989132;28;20038;-67
2021/04/17 00:42:39;;;;;;;11.97;6.87;;;;;;;16.13;51.25;100436.56;4981267;28;20081;-67
2021/04/17 00:45:06;;;;;;;11.23;5.30;;;;;;;16.13;51.41;100442.22;4989999;28;20043;-69
2021/04/17 00:47:36;;;;;;;11.30;6.30;;;;;;;16.11;51.54;100430.44;4988647;28;20052;-68
2021/04/17 00:50:04;;;;;;;9.77;6.03;;;;;;;16.16;51.40;100438.75;4986196;28;20442;-70
2021/04/17 00:52:33;;;;;;;12.70;5.10;;;;;;;16.10;51.62;100434.41;4990776;28;20085;-70
2021/04/17 00:55:00;;;;;;;9.93;4.57;;;;;;;15.98;51.58;100429.34;4989850;28;20487;-67
2021/04/17 00:57:26;;;;;;;12.20;5.70;;;;;;;16.03;51.61;100439.66;4964868;28;20516;-67
2021/04/17 00:59:53;;;;;;;12.53;5.20;;;;;;;16.05;51.60;100440.16;4988171;28;20105;-61
2021/04/17 01:02:28;;;;;;;5.77;3.00;;;;;;;15.94;51.40;100441.59;4987587;28;20046;-62
2021/04/17 01:05:00;;;;;;;10.83;4.00;;;;;;;15.96;51.34;100440.09;4987117;28;20502;-63
2021/04/17 01:07:33;;;;;;;6.53;2.80;;;;;;;15.97;50.85;100422.06;4986773;28;20054;-63
2021/04/17 01:10:09;;;;;;;3.17;1.97;;;;;;;16.08;50.23;100433.91;4980763;28;20185;-63
2021/04/17 01:12:39;;;;;;;2.23;1.83;;;;;;;16.13;49.71;100433.75;4986429;28;20057;-63
2021/04/17 01:15:08;;;;;;;7.60;2.90;;;;;;;16.15;49.49;100425.81;4984221;28;20057;-64
2021/04/17 01:17:37;;;;;;;6.67;3.30;;;;;;;16.25;49.15;100428.38;4983084;28;20058;-67
2021/04/17 01:20:20;;;;;;;;;;;;;;;16.13;49.26;100422.47;4990265;28;20945;-70
2021/04/17 01:23:18;;;;;;;11.87;4.47;;;;;;;16.11;48.97;100424.81;4986128;28;19928;-71
2021/04/17 01:25:58;;;;;;;6.67;1.70;;;;;;;16.06;49.09;100417.31;4982714;28;20414;-71
2021/04/17 01:28:28;;;;;;;4.40;2.63;;;;;;;16.03;49.03;100422.75;4987555;28;20046;-72
2021/04/17 01:30:56;;;;;;;6.13;2.38;;;;;;;15.93;49.13;100421.03;4986666;28;20076;-71
2021/04/17 01:33:27;;;;;;;5.43;3.77;;;;;;;15.81;49.15;100413.16;4987851;28;20046;-70
2021/04/17 01:35:54;;;;;;;;;;;;;;;15.57;49.01;100413.41;4985204;28;20137;-71
2021/04/17 01:38:27;;;;;;;2.43;1.43;;;;;;;15.65;48.32;100417.44;4987306;28;19929;-70
2021/04/17 01:41:05;;;;;;;1.00;0.97;;;;;;;15.65;47.70;100418.28;4985932;28;20129;-70
2021/04/17 01:43:34;;;;;;;3.13;1.70;;;;;;;15.75;47.20;100424.84;4985410;28;20411;-71
2021/04/17 01:46:09;;;;;;;3.00;2.17;;;;;;;15.72;46.24;100423.50;4987574;28;20129;-70
2021/04/17 01:48:37;;;;;;;5.00;2.57;;;;;;;15.74;45.87;100409.94;4988543;28;20047;-71
2021/04/17 01:51:06;;;;;;;2.87;2.13;;;;;;;15.58;45.07;100386.09;4984161;28;20055;-72
2021/04/17 01:53:37;;;;;;;2.53;1.67;;;;;;;15.75;44.50;100420.06;4986656;28;20046;-65
2021/04/17 01:56:07;;;;;;;2.33;1.60;;;;;;;15.78;44.41;100422.22;4987549;28;20042;-63
2021/04/17 01:58:37;;;;;;;2.97;1.50;;;;;;;15.82;43.60;100428.06;4970557;28;20046;-62
2021/04/17 02:01:04;;;;;;;0.90;0.80;;;;;;;15.81;43.24;100427.22;4985818;28;20054;-63
2021/04/17 02:03:31;;;;;;;2.60;1.57;;;;;;;15.75;42.70;100422.88;4977785;28;20052;-63
2021/04/17 02:05:57;;;;;;;0.40;0.40;;;;;;;15.78;41.79;100427.88;4987464;28;20049;-64
2021/04/17 02:08:23;;;;;;;0.97;0.90;;;;;;;15.81;41.54;100415.13;4986676;28;20053;-65
2021/04/17 02:10:51;;;;;;;1.47;1.17;;;;;;;15.77;40.43;100412.13;4985975;28;20481;-62
2021/04/17 02:13:24;;;;;;;2.03;1.40;;;;;;;15.90;39.48;100429.28;4982652;28;20038;-63
2021/04/17 02:15:50;;;;;;;2.63;1.00;;;;;;;15.85;39.34;100430.25;4986644;28;20058;-61
2021/04/17 02:18:41;;;;;;;0.83;0.77;;;;;;;15.43;38.40;100353.53;4987792;28;20053;-62
2021/04/17 02:21:10;;;;;;;0.43;0.43;;;;;;;15.92;37.83;100438.25;4983562;28;20235;-61
2021/04/17 02:23:37;;;;;;;2.70;0.80;;;;;;;15.93;37.65;100434.25;4986180;28;20476;-62
2021/04/17 02:26:03;;;;;;;2.87;1.20;;;;;;;15.91;37.43;100434.59;4984286;28;20409;-62
2021/04/17 02:28:31;;;;;;;1.13;0.70;;;;;;;15.93;37.07;100440.75;4984641;28;20061;-62
2021/04/17 02:31:01;;;;;;;1.63;1.10;;;;;;;15.90;36.78;100435.75;4987937;28;20050;-62
2021/04/17 02:33:28;;;;;;;;;;;;;;;15.65;36.62;100423.91;4987795;28;20050;-62
2021/04/17 02:35:56;;;;;;;1.43;1.00;;;;;;;15.70;36.68;100434.25;4984814;28;19936;-63
2021/04/17 02:38:23;;;;;;;0.70;0.70;;;;;;;15.77;36.51;100431.84;4989576;28;20046;-62
2021/04/17 02:40:50;;;;;;;1.67;1.00;;;;;;;15.81;36.73;100432.88;4989102;28;20411;-62
2021/04/17 02:43:16;;;;;;;0.50;0.50;;;;;;;15.86;36.65;100445.97;4990416;28;20495;-63
2021/04/17 02:45:43;;;;;;;0.70;0.67;;;;;;;15.61;36.53;100427.69;4986153;28;20051;-63
2021/04/17 02:48:09;;;;;;;0.50;0.40;;;;;;;15.65;36.43;100442.78;4985759;28;20052;-63
2021/04/17 02:50:36;;;;;;;1.77;1.30;;;;;;;15.77;36.37;100450.72;4983769;28;20050;-63
2021/04/17 02:53:02;;;;;;;2.10;0.83;;;;;;;15.32;36.38;100397.13;4981387;28;20072;-62
2021/04/17 02:55:29;;;;;;;1.53;1.20;;;;;;;15.73;36.12;100458.16;4980251;28;20046;-62
2021/04/17 02:57:58;;;;;;;0.40;0.40;;;;;;;15.63;36.01;100464.81;4988048;28;20049;-63
2021/04/17 03:00:24;;;;;;;1.10;0.70;;;;;;;15.72;35.63;100468.53;4987538;28;20050;-63
2021/04/17 03:02:51;;;;;;;1.67;1.00;;;;;;;15.59;35.91;100458.97;4984733;28;20051;-63
2021/04/17 03:05:19;;;;;;;2.17;1.03;;;;;;;15.52;35.68;100446.47;4986509;28;20073;-63
2021/04/17 03:07:46;;;;;;;2.87;1.50;;;;;;;15.59;35.50;100463.78;4983172;28;20043;-62
2021/04/17 03:10:13;;;;;;;1.17;1.00;;;;;;;15.56;35.64;100476.50;4987658;28;20141;-63
2021/04/17 03:12:40;;;;;;;0.40;0.40;;;;;;;15.58;35.60;100464.91;4987973;28;20046;-62
2021/04/17 03:15:07;;;;;;;1.63;0.90;;;;;;;15.41;35.51;100462.75;4985234;28;20050;-63
2021/04/17 03:17:34;;;;;;;2.83;0.67;;;;;;;15.16;35.40;100461.34;4984003;28;20133;-63
2021/04/17 03:20:01;;;;;;;2.57;0.60;;;;;;;15.22;35.42;100453.63;4983642;28;20070;-63
2021/04/17 03:22:27;;;;;;;0.50;0.50;;;;;;;15.07;35.29;100478.09;4983416;28;20047;-62
2021/04/17 03:24:54;;;;;;;0.40;0.40;;;;;;;15.03;35.77;100453.72;4980219;28;20045;-61
2021/04/17 03:27:21;;;;;;;0.50;0.50;;;;;;;15.17;35.48;100480.69;4981143;28;20047;-66
2021/04/17 03:29:48;;;;;;;1.73;1.13;;;;;;;15.05;35.48;100482.38;4966472;28;20134;-63
2021/04/17 03:32:15;;;;;;;3.13;1.03;;;;;;;14.98;35.46;100471.56;4984951;28;20057;-62
2021/04/17 03:34:41;;;;;;;0.73;0.67;;;;;;;14.97;35.70;100471.84;4984505;28;20047;-64
2021/04/17 03:37:08;;;;;;;0.93;0.80;;;;;;;14.97;35.76;100483.09;4984627;28;20145;-61
2021/04/17 03:39:34;;;;;;;1.33;0.80;;;;;;;14.85;35.79;100467.56;4988872;28;20053;-62
2021/04/17 03:42:01;;;;;;;0.90;0.70;;;;;;;14.80;35.62;100456.44;4988802;28;20054;-62
2021/04/17 03:44:27;;;;;;;1.17;0.83;;;;;;;14.68;35.57;100489.84;4989078;28;20066;-61
2021/04/17 03:46:53;;;;;;;1.43;0.90;;;;;;;14.67;35.64;100493.81;4983950;28;20134;-63
2021/04/17 03:49:20;;;;;;;1.43;0.70;;;;;;;14.58;35.57;100484.41;4968439;28;20507;-64
2021/04/17 03:51:47;;;;;;;1.33;1.17;;;;;;;14.43;35.35;100471.44;4986018;28;20384;-65
2021/04/17 03:54:13;;;;;;;4.27;1.53;;;;;;;14.51;35.14;100506.47;4986061;28;22719;-64
2021/04/17 03:56:40;;;;;;;1.50;0.90;;;;;;;14.50;35.18;100504.78;4988896;28;20495;-65
2021/04/17 03:59:06;;;;;;;2.23;1.20;;;;;;;14.50;35.15;100505.63;4980930;28;20141;-61
2021/04/17 04:01:32;;;;;;;1.70;1.20;;;;;;;14.41;35.03;100507.44;4982892;28;20053;-61
2021/04/17 04:04:00;;;;;;;0.83;0.67;;;;;;;14.41;34.86;100499.84;4986916;28;20046;-61
2021/04/17 04:06:28;;;;;;;0.73;0.60;;;;;;;14.24;35.01;100491.16;4987453;28;20050;-61
2021/04/17 04:08:54;;;;;;;2.00;1.17;;;;;;;14.31;35.07;100513.22;4986132;28;20133;-61
2021/04/17 04:11:21;;;;;;;0.97;0.93;;;;;;;14.37;34.78;100521.25;4987265;28;20047;-60
2021/04/17 04:13:47;;;;;;;4.97;1.00;;;;;;;14.23;34.76;100528.81;4985691;28;20445;-61
2021/04/17 04:16:13;;;;;;;2.00;1.03;;;;;;;14.34;34.58;100504.19;4983218;28;20137;-61
2021/04/17 04:18:40;;;;;;;2.13;0.63;;;;;;;14.15;34.68;100492.97;4986103;28;20054;-62
2021/04/17 04:21:06;;;;;;;2.43;0.53;;;;;;;14.10;34.49;100498.69;4983623;28;20050;-61
2021/04/17 04:23:33;;;;;;;0.60;0.60;;;;;;;14.24;34.46;100510.81;4981061;28;20050;-62
2021/04/17 04:25:59;;;;;;;3.03;0.87;;;;;;;14.08;34.55;100501.78;4986693;28;20414;-60
2021/04/17 04:28:26;;;;;;;3.40;1.40;;;;;;;14.10;34.22;100505.13;4980673;28;20487;-62
2021/04/17 04:30:52;;;;;;;2.00;0.80;;;;;;;14.03;34.19;100509.47;4983260;28;20061;-67
2021/04/17 04:33:18;;;;;;;1.30;1.20;;;;;;;13.96;34.31;100513.50;4987887;28;20050;-65
2021/04/17 04:35:45;;;;;;;0.70;0.70;;;;;;;14.04;34.26;100511.13;4970074;28;20053;-65
2021/04/17 04:38:11;;;;;;;0.97;0.80;;;;;;;13.98;34.03;100522.47;4985800;28;20760;-64
2021/04/17 04:40:37;;;;;;;2.27;1.47;;;;;;;13.88;33.99;100519.81;4983274;28;20047;-63
2021/04/17 04:43:04;;;;;;;1.40;0.90;;;;;;;13.72;34.21;100501.53;4984015;28;20406;-65
2021/04/17 04:45:31;;;;;;;4.60;0.90;;;;;;;13.84;33.83;100515.91;4990088;28;20515;-63
2021/04/17 04:47:58;;;;;;;0.60;0.60;;;;;;;13.90;33.96;100516.69;4987310;28;20429;-62
2021/04/17 04:50:25;;;;;;;2.37;1.30;;;;;;;13.72;33.76;100490.28;4984902;28;20050;-64
2021/04/17 04:52:52;;;;;;;0.70;0.70;;;;;;;13.72;33.34;100501.53;4991302;28;20047;-62
2021/04/17 04:55:18;;;;;;;0.77;0.63;;;;;;;13.84;33.60;100518.72;4986268;28;20408;-62
2021/04/17 04:57:45;;;;;;;5.93;1.43;;;;;;;13.67;33.30;100508.03;4990402;28;20535;-61
2021/04/17 05:00:11;;;;;;;1.87;1.10;;;;;;;13.78;33.30;100519.09;4988286;28;20052;-61
2021/04/17 05:02:38;;;;;;;11.67;1.90;;;;;;;13.68;33.02;100508.88;4986906;28;20054;-62
2021/04/17 05:05:05;;;;;;;1.43;0.97;;;;;;;13.54;32.93;100499.50;4985701;28;20125;-62
2021/04/17 05:07:31;;;;;;;2.67;0.77;;;;;;;13.57;32.98;100515.75;4986643;28;20132;-60
2021/04/17 05:09:57;;;;;;;2.03;1.20;;;;;;;13.54;33.22;100522.81;4987928;28;20042;-62
2021/04/17 05:12:24;;;;;;;3.47;1.07;;;;;;;13.54;33.07;100538.78;4987535;28;20039;-62
2021/04/17 05:14:50;;;;;;;3.80;1.07;;;;;;;13.52;32.84;100525.06;4987486;28;20587;-63
2021/04/17 05:17:17;;;;;;;1.17;0.73;;;;;;;13.52;32.79;100539.94;4988952;28;20492;-63
2021/04/17 05:19:44;;;;;;;5.50;1.17;;;;;;;13.46;32.58;100543.94;4988164;28;20052;-63
2021/04/17 05:22:10;;;;;;;2.10;1.00;;;;;;;13.49;32.87;100548.94;4985245;28;20061;-66
2021/04/17 05:24:37;;;;;;;2.30;1.20;;;;;;;13.39;32.57;100537.84;4986600;28;20418;-62
2021/04/17 05:27:04;;;;;;;0.53;0.53;;;;;;;13.24;32.82;100524.03;4989338;28;20052;-64
2021/04/17 05:29:31;;;;;;;2.90;1.27;;;;;;;13.18;32.58;100528.00;4988224;28;20043;-63
2021/04/17 05:31:57;;;;;;;0.97;0.53;;;;;;;13.18;32.60;100545.66;4987969;28;20058;-61
2021/04/17 05:34:23;;;;;;;1.13;1.00;;;;;;;13.17;32.58;100551.56;4988471;28;20750;-63
2021/04/17 05:36:50;;;;;;;1.20;0.97;;;;;;;13.23;32.75;100533.53;4986168;28;20046;-61
2021/04/17 05:39:16;;;;;;;3.40;1.23;;;;;;;13.19;32.37;100540.88;4987604;28;20042;-61
2021/04/17 05:41:43;;;;;;;1.47;0.87;;;;;;;13.13;32.40;100539.25;4963859;28;20050;-60
2021/04/17 05:44:12;;;;;;;1.37;1.00;;;;;;;13.07;32.26;100563.75;4988728;28;20085;-59
2021/04/17 05:46:40;;;;;;;1.93;0.90;;;;;;;12.99;32.36;100539.13;4986063;28;20050;-62
2021/04/17 05:49:08;;;;;;;1.60;0.80;;;;;;;13.07;32.42;100560.09;4988260;28;20563;-63
2021/04/17 05:51:35;;;;;;;0.93;0.70;;;;;;;12.98;32.15;100557.09;4987061;28;20052;-64
2021/04/17 05:54:02;;;;;;;5.50;1.30;;;;;;;12.99;32.05;100561.56;4985677;28;20061;-65
2021/04/17 05:56:28;;;;;;;0.80;0.80;;;;;;;12.74;31.99;100521.47;4989429;28;20047;-62
2021/04/17 05:58:55;;;;;;;6.77;1.00;;;;;;;12.98;31.69;100563.53;4989743;28;20540;-63
2021/04/17 06:01:22;;;;;;;1.23;0.97;;;;;;;12.81;31.57;100537.94;4985891;28;20440;-66
2021/04/17 06:03:49;;;;;;;4.60;1.13;;;;;;;12.88;31.58;100560.84;4986927;28;20255;-64
2021/04/17 06:06:15;;;;;;;0.60;0.50;;;;;;;12.93;31.45;100566.41;4986807;28;20042;-61
2021/04/17 06:08:41;;;;;;;1.00;0.80;;;;;;;12.88;31.21;100588.88;4985824;28;20070;-67
2021/04/17 06:11:08;;;;;;;2.00;1.03;;;;;;;12.92;31.23;100584.38;4987288;28;20050;-62
2021/04/17 06:13:34;;;;;;;1.40;0.70;;;;;;;12.91;30.95;100573.44;4986340;28;20049;-68
2021/04/17 06:16:08;;;;;;;1.20;0.70;;;;;;;12.82;31.16;100553.63;4983461;28;20043;-61
2021/04/17 06:18:38;;;;;;;4.37;1.03;;;;;;;12.80;31.11;100564.28;4984836;28;20384;-60
2021/04/17 06:21:06;;;;;;;2.73;0.97;;;;;;;12.96;30.26;100571.44;4984583;28;20407;-59
2021/04/17 06:23:33;;;;;;;2.17;1.07;;;;;;;12.53;30.47;100506.00;4986111;28;20085;-59
2021/04/17 06:26:00;;;;;;;3.47;1.20;;;;;;;12.98;30.26;100588.75;4979846;28;20138;-60
2021/04/17 06:28:27;;;;;;;0.83;0.80;;;;;;;12.97;29.91;100575.06;4982731;28;20039;-60
2021/04/17 06:30:53;;;;;;;0.93;0.83;;;;;;;12.95;29.60;100583.75;4982617;28;20144;-59
2021/04/17 06:33:20;;;;;;;1.03;0.77;;;;;;;13.09;29.88;100583.06;4985937;28;20483;-61
2021/04/17 06:35:46;;;;;;;2.53;1.07;;;;;;;13.21;29.47;100594.72;4985966;28;20133;-61
2021/04/17 06:38:15;;;;;;;2.00;0.80;;;;;;;13.22;29.33;100576.75;4982505;28;20411;-59
2021/04/17 06:40:43;;;;;;;2.37;0.87;;;;;;;13.37;29.38;100590.63;4985238;28;20543;-59
2021/04/17 06:43:11;;;;;;;1.67;1.00;;;;;;;13.31;29.15;100591.81;4986757;28;20056;-60
2021/04/17 06:45:39;;;;;;;2.23;1.23;;;;;;;13.31;28.90;100607.81;4985468;28;20050;-62
2021/04/17 06:48:10;;;;;;;0.67;0.57;;;;;;;13.26;28.73;100594.66;4984228;28;20042;-61
2021/04/17 06:50:38;;;;;;;1.80;0.80;;;;;;;13.36;28.87;100602.13;4967957;28;20054;-60
2021/04/17 06:53:09;;;;;;;1.10;0.77;;;;;;;13.43;28.71;100611.84;4985665;28;20051;-61
2021/04/17 06:55:36;;;;;;;0.57;0.57;;;;;;;13.25;28.89;100591.03;4985754;28;20046;-60
2021/04/17 06:58:03;;;;;;;0.50;0.50;;;;;;;13.38;28.72;100623.16;4979442;28;20050;-59
2021/04/17 07:00:30;;;;;;;1.37;0.70;;;;;;;13.41;28.44;100616.13;4979514;28;20141;-60
2021/04/17 07:02:59;;;;;;;1.47;1.10;;;;;;;13.40;28.28;100623.69;4985483;28;20064;-60
2021/04/17 07:05:26;;;;;;;1.40;0.90;;;;;;;13.44;28.09;100595.88;4982412;28;20066;-61
2021/04/17 07:07:52;;;;;;;0.53;0.53;;;;;;;13.51;27.90;100611.22;4981067;28;20043;-59
2021/04/17 07:10:24;;;;;;;2.70;0.93;;;;;;;13.54;27.87;100611.75;4985641;28;21776;-59
2021/04/17 07:12:50;;;;;;;0.67;0.67;;;;;;;13.70;28.12;100599.19;4985249;28;20054;-59
2021/04/17 07:15:16;;;;;;;1.40;0.83;;;;;;;14.10;27.52;100616.63;4982174;28;20046;-59
2021/04/17 07:17:43;;;;;;;1.50;0.70;;;;;;;14.33;27.12;100609.28;4987989;28;20077;-58
2021/04/17 07:20:16;;;;;;;1.93;1.23;;;;;;;14.52;27.10;100596.06;4987529;28;20093;-59
2021/04/17 07:22:43;;;;;;;1.50;1.17;;;;;;;14.35;26.88;100599.38;4990300;28;20046;-58
2021/04/17 07:25:09;;;;;;;0.70;0.70;;;;;;;14.15;27.23;100610.94;4981911;28;20048;-58
2021/04/17 07:27:38;;;;;;;0.60;0.60;;;;;;;14.08;27.42;100616.09;4987139;28;20460;-60
2021/04/17 07:30:17;;;;;;;3.17;1.23;;;;;;;14.04;27.17;100615.84;4982921;28;20407;-61
2021/04/17 07:32:47;;;;;;;0.80;0.80;;;;;;;14.32;26.98;100616.84;4994466;28;20046;-60
2021/04/17 07:35:21;;;;;;;1.23;0.90;;;;;;;14.74;26.69;100611.47;4986968;28;20503;-59
2021/04/17 07:38:16;;;;;;;1.47;0.90;;;;;;;15.15;25.89;100628.44;4988437;28;20050;-59
2021/04/17 07:41:07;;;;;;;3.00;0.97;;;;;;;15.29;25.68;100625.66;4988391;28;20052;-59
2021/04/17 07:44:00;;;;;;;2.47;0.83;;;;;;;15.53;25.79;100603.78;4986160;28;20178;-59
2021/04/17 07:46:31;;;;;;;3.33;1.53;;;;;;;15.60;24.88;100626.72;4987584;28;20498;-59
2021/04/17 07:49:18;;;;;;;1.00;0.80;;;;;;;15.46;25.09;100600.56;4988681;28;20049;-61
2021/04/17 07:51:57;;;;;;;1.03;0.97;;;;;;;15.18;25.05;100650.34;4987333;28;20053;-61
2021/04/17 07:54:24;;;;;;;1.03;1.00;;;;;;;15.27;25.29;100637.19;4986831;28;20093;-59
2021/04/17 07:56:51;;;;;;;0.60;0.60;;;;;;;15.28;25.43;100626.78;4965512;28;20047;-58
2021/04/17 07:59:24;;;;;;;2.60;0.87;;;;;;;15.20;24.84;100641.56;4980028;28;20046;-59
2021/04/17 08:01:52;;;;;;;3.13;1.50;;;;;;;15.19;24.84;100635.13;4987721;28;20045;-59
2021/04/17 08:04:25;;;;;;;;;;;;;;;15.07;25.10;100626.31;4982894;28;20586;-59
2021/04/17 08:06:52;;;;;;;;;;;;;;;15.08;25.08;100616.75;4988357;28;19921;-59
2021/04/17 08:09:21;;;;;;;1.60;1.07;;;;;;;15.35;24.73;100604.69;4983844;28;20094;-58
2021/04/17 08:11:53;;;;;;;1.27;0.67;;;;;;;15.17;24.42;100637.38;4987690;28;20064;-60
2021/04/17 08:14:20;;;;;;;4.80;1.33;;;;;;;15.12;24.53;100652.38;4984502;28;20064;-59
2021/04/17 08:16:48;;;;;;;2.33;1.53;;;;;;;15.13;24.70;100648.44;4987044;28;20520;-58
2021/04/17 08:19:15;;;;;;;0.80;0.80;;;;;;;15.27;24.97;100614.69;4984234;28;20428;-60
2021/04/17 08:21:41;;;;;;;3.47;1.20;;;;;;;15.64;24.42;100635.38;4969489;28;20055;-60
2021/04/17 08:24:09;;;;;;;1.70;1.10;;;;;;;15.87;24.29;100600.56;4988940;28;20052;-59
2021/04/17 08:26:36;;;;;;;1.73;0.97;;;;;;;15.93;23.71;100639.84;4987196;28;20080;-59
2021/04/17 08:29:03;;;;;;;2.60;1.70;;;;;;;16.01;23.43;100639.13;4985434;28;20058;-58
2021/04/17 08:31:38;;;;;;;0.97;0.83;;;;;;;16.25;23.90;100622.81;4987032;28;20415;-60
2021/04/17 08:34:21;;;;;;;2.10;1.40;;;;;;;16.44;23.92;100625.44;4985850;28;20077;-58
2021/04/17 08:36:48;;;;;;;4.17;0.93;;;;;;;16.40;23.59;100637.69;4988294;28;20355;-61
2021/04/17 08:39:33;;;;;;;1.63;0.90;;;;;;;15.95;23.67;100632.78;4986952;28;20043;-59
2021/04/17 08:42:11;;;;;;;1.30;0.80;;;;;;;15.82;23.61;100626.00;4984160;28;20065;-61
2021/04/17 08:44:40;;;;;;;3.10;1.60;;;;;;;15.75;23.50;100636.00;4988360;28;20438;-60
2021/04/17 08:47:11;;;;;;;5.10;1.87;;;;;;;15.94;23.90;100622.66;4983384;28;20078;-60
2021/04/17 08:49:40;;;;;;;1.40;1.03;;;;;;;16.11;23.64;100633.28;4986684;28;20054;-60
2021/04/17 08:52:21;;;;;;;1.17;1.07;;;;;;;16.39;23.45;100641.66;4986342;28;20047;-59
2021/04/17 08:55:12;;;;;;;1.23;1.10;;;;;;;16.64;23.14;100640.22;4986949;28;20051;-60
2021/04/17 08:57:39;;;;;;;6.17;1.93;;;;;;;17.02;23.18;100623.75;4988810;28;20065;-60
2021/04/17 09:00:08;;;;;;;0.83;0.83;;;;;;;17.19;22.22;100635.16;4990387;28;20046;-59
2021/04/17 09:02:44;;;;;;;1.65;0.88;;;;;;;17.59;21.84;100665.41;4991505;28;20062;-61
2021/04/17 09:05:17;;;;;;;2.47;1.50;;;;;;;18.05;21.79;100636.72;4988165;28;20113;-60
2021/04/17 09:07:47;;;;;;;1.27;0.70;;;;;;;18.78;21.98;100656.75;4991473;28;20501;-61
2021/04/17 09:10:25;;;;;;;0.63;0.63;;;;;;;19.13;20.65;100668.88;4990883;28;20047;-60
2021/04/17 09:13:20;;;;;;;5.50;1.42;;;;;;;19.58;20.81;100659.09;4990346;28;20047;-61
2021/04/17 09:15:57;;;;;;;0.60;0.55;;;;;;;19.57;20.28;100669.59;4976639;28;20049;-61
2021/04/17 09:18:36;;;;;;;0.50;0.50;;;;;;;19.46;20.21;100685.31;4989768;28;20057;-59
2021/04/17 09:21:15;;;;;;;3.53;1.90;;;;;;;19.69;19.99;100668.91;4989729;28;20181;-61
2021/04/17 09:23:46;;;;;;;1.88;1.17;;;;;;;19.56;20.05;100675.63;4990665;28;20042;-61
2021/04/17 09:26:31;;;;;;;1.75;1.42;;;;;;;19.58;20.43;100671.25;4989363;28;20055;-61
2021/04/17 09:29:01;;;;;;;1.70;1.05;;;;;;;19.80;20.36;100672.22;4986391;28;20408;-61
2021/04/17 09:31:34;;;;;;;2.55;1.20;;;;;;;19.51;20.32;100651.13;4989987;28;20496;-61
2021/04/17 09:34:02;;;;;;;1.67;0.60;;;;;;;19.47;20.14;100666.31;4990002;28;20050;-60
2021/04/17 09:36:30;;;;;;;1.48;1.15;;;;;;;19.74;19.83;100673.56;4989998;28;20423;-62
2021/04/17 09:38:58;;;;;;;0.93;0.90;;;;;;;20.24;20.17;100669.97;4989033;28;20050;-60
2021/04/17 09:41:24;;;;;;;4.20;1.30;;;;;;;20.16;19.94;100676.53;4989598;28;20133;-59
2021/04/17 09:43:55;;;;;;;2.15;1.25;;;;;;;19.83;19.67;100623.38;4990155;28;20054;-60
2021/04/17 09:46:23;;;;;;;5.82;1.42;;;;;;;20.50;19.69;100664.13;4989042;28;20046;-60
2021/04/17 09:48:49;;;;;;;1.65;1.10;;;;;;;21.48;19.78;100670.28;4990359;28;20567;-60
2021/04/17 09:51:27;;;;;;;1.73;1.10;;;;;;;21.47;18.75;100658.09;4989556;28;20058;-61
2021/04/17 09:54:00;;;;;;;0.85;0.85;;;;;;;21.04;18.59;100656.50;4990007;28;20048;-60
2021/04/17 09:56:30;;;;;;;3.53;1.08;;;;;;;21.01;18.66;100634.50;4988765;28;20056;-60
2021/04/17 09:58:57;;;;;;;;;;;;;;;20.77;18.45;100657.09;4990143;28;20222;-61
2021/04/17 10:01:24;;;;;;;5.10;2.35;;;;;;;21.15;18.47;100622.00;4990225;28;20313;-61
2021/04/17 10:03:57;;;;;;;2.72;1.80;;;;;;;21.85;18.52;100642.75;4990864;28;20435;-60
2021/04/17 10:06:28;;;;;;;2.83;1.55;;;;;;;22.47;18.28;100632.16;4989833;28;20141;-59
2021/04/17 10:09:16;;;;;;;4.22;1.27;;;;;;;22.37;17.86;100576.59;4989831;28;20046;-60
2021/04/17 10:11:44;;;;;;;3.40;1.63;;;;;;;23.03;17.95;100648.50;4985443;28;20054;-60
2021/04/17 10:14:12;;;;;;;3.35;1.52;;;;;;;23.15;17.55;100637.06;4989142;28;20048;-60
2021/04/17 10:16:42;;;;;;;5.35;1.67;;;;;;;23.36;17.37;100640.50;4988483;28;20125;-61
2021/04/17 10:19:17;;;;;;;1.35;1.00;;;;;;;23.13;17.12;100636.56;4989769;28;20081;-61
2021/04/17 10:21:46;;;;;;;4.72;1.80;;;;;;;22.99;17.25;100658.97;4989596;28;20046;-60
2021/04/17 10:24:23;;;;;;;4.10;1.75;;;;;;;22.79;17.05;100644.53;4989205;28;20038;-61
2021/04/17 10:26:54;;;;;;;3.08;1.35;;;;;;;23.17;16.89;100646.88;4989272;28;20054;-61
2021/04/17 10:29:31;;;;;;;1.77;1.23;;;;;;;23.02;16.94;100658.25;4988351;28;20058;-60
2021/04/17 10:32:03;;;;;;;2.13;1.40;;;;;;;22.89;17.39;100651.72;4989659;28;20047;-62
2021/04/17 10:34:30;;;;;;;4.35;1.63;;;;;;;22.82;17.12;100643.78;4988333;28;20134;-60
2021/04/17 10:37:06;;;;;;;2.53;1.92;;;;;;;22.82;17.31;100649.50;4989323;28;20038;-61
2021/04/17 10:39:33;;;;;;;4.82;1.50;;;;;;;23.02;17.15;100663.94;4990662;28;20129;-59
2021/04/17 10:42:08;;;;;;;4.80;1.38;;;;;;;22.95;17.00;100647.47;4986158;28;20047;-60
2021/04/17 10:44:35;;;;;;;6.20;1.50;;;;;;;23.06;17.01;100642.06;4996477;28;20551;-60
2021/04/17 10:47:05;;;;;;;4.28;1.80;;;;;;;22.72;16.83;100607.31;4994867;28;20047;-61
2021/04/17 10:49:34;;;;;;;;;;;;;;;22.32;17.09;100652.81;4972285;28;22026;-61
2021/04/17 10:52:04;;;;;;;2.67;1.95;;;;;;;22.70;16.99;100618.22;4990197;28;19921;-62
2021/04/17 10:54:30;;;;;;;;;;;;;;;22.93;17.48;100639.28;4985512;28;20136;-63
2021/04/17 10:57:02;;;;;;;1.50;1.10;;;;;;;23.86;16.86;100635.28;4987059;28;19929;-63
2021/04/17 10:59:52;;;;;;;3.35;1.73;;;;;;;24.89;15.84;100645.47;4986203;28;20479;-62
2021/04/17 11:02:33;;;;;;;4.05;2.10;;;;;;;26.07;15.69;100656.31;4992402;28;20547;-62
2021/04/17 11:05:00;;;;;;;2.67;1.85;;;;;;;26.59;15.49;100640.34;4986594;28;20061;-62
2021/04/17 11:07:37;;;;;;;3.47;1.65;;;;;;;26.45;15.46;100640.13;4986663;28;20054;-61
2021/04/17 11:10:09;;;;;;;1.63;1.20;;;;;;;26.56;15.22;100643.97;4986101;28;20043;-59
2021/04/17 11:12:38;;;;;;;6.30;2.17;;;;;;;25.98;15.06;100632.84;4988747;28;20144;-60
2021/04/17 11:15:29;;;;;;;1.67;1.23;;;;;;;25.38;15.56;100626.88;4988416;28;20081;-61
2021/04/17 11:18:16;;;;;;;5.75;1.60;;;;;;;25.08;16.05;100635.22;4986724;28;20064;-60
2021/04/17 11:21:03;;;;;;;2.13;1.30;;;;;;;25.61;16.24;100622.00;4986661;28;20128;-61
2021/04/17 11:23:36;;;;;;;2.15;1.33;;;;;;;26.08;16.65;100637.91;4982515;28;20046;-60
2021/04/17 11:26:09;;;;;;;4.93;1.45;;;;;;;26.14;16.59;100624.94;4987662;28;20042;-61
2021/04/17 11:28:39;;;;;;;3.42;1.58;;;;;;;26.58;16.62;100624.38;4983805;28;20047;-62
2021/04/17 11:31:07;;;;;;;2.65;1.83;;;;;;;27.43;16.29;100638.13;4991375;28;20055;-59
2021/04/17 11:33:34;;;;;;;5.78;2.15;;;;;;;27.70;16.10;100594.97;4988200;28;20105;-59
2021/04/17 11:36:02;;;;;;;2.45;1.58;;;;;;;28.53;15.52;100632.53;4986946;28;20066;-60
2021/04/17 11:38:29;;;;;;;5.82;2.10;;;;;;;28.77;15.96;100621.56;4985111;28;20174;-60